createdAt,value
2022-11-06T00:01:07.557Z,101581.69
2022-11-06T00:03:36.121Z,101577.31
2022-11-06T00:06:26.995Z,101580.81
2022-11-06T00:08:54.889Z,101580.63
2022-11-06T00:11:22.511Z,101586.34
2022-11-06T00:13:52.426Z,101580.00
2022-11-06T00:16:21.881Z,101572.66
2022-11-06T00:18:50.670Z,101568.66
2022-11-06T00:21:21.216Z,101565.38
2022-11-06T00:23:49.186Z,101562.38
2022-11-06T00:26:25.826Z,101565.56
2022-11-06T00:28:54.135Z,101571.84
2022-11-06T00:31:24.898Z,101560.75
2022-11-06T00:33:53.941Z,101568.09
2022-11-06T00:36:24.024Z,101559.28
2022-11-06T00:38:53.609Z,101566.44
2022-11-06T00:41:21.481Z,101562.75
2022-11-06T00:43:50.979Z,101564.28
2022-11-06T00:46:18.888Z,101557.75
2022-11-06T00:48:46.609Z,101557.44
2022-11-06T00:51:22.363Z,101561.78
2022-11-06T00:53:59.397Z,101555.75
2022-11-06T00:56:27.953Z,101560.28
2022-11-06T00:58:56.051Z,101558.97
2022-11-06T01:01:29.915Z,101556.47
2022-11-06T01:04:02.512Z,101555.00
2022-11-06T01:06:33.626Z,101560.00
2022-11-06T01:09:12.290Z,101555.47
2022-11-06T01:12:13.634Z,101561.63
2022-11-06T01:14:42.675Z,101566.81
2022-11-06T01:17:13.637Z,101566.13
2022-11-06T01:19:42.574Z,101565.97
2022-11-06T01:22:13.117Z,101563.97
2022-11-06T01:24:40.519Z,101566.47
2022-11-06T01:29:56.142Z,101549.81
2022-11-06T01:32:23.658Z,101557.97
2022-11-06T01:34:52.108Z,101549.81
2022-11-06T01:37:26.739Z,101553.63
2022-11-06T01:39:56.853Z,101553.47
2022-11-06T01:42:31.727Z,101551.31
2022-11-06T01:45:20.587Z,101549.47
2022-11-06T01:47:48.893Z,101549.31
2022-11-06T01:50:22.086Z,101547.97
2022-11-06T01:52:54.490Z,101547.66
2022-11-06T01:55:26.801Z,101548.00
2022-11-06T01:57:55.663Z,101546.47
2022-11-06T02:00:23.217Z,101542.97
2022-11-06T02:02:52.401Z,101540.81
2022-11-06T02:05:20.089Z,101544.97
2022-11-06T02:07:48.366Z,101541.63
2022-11-06T02:10:15.906Z,101549.13
2022-11-06T02:12:56.083Z,101545.63
2022-11-06T02:15:38.701Z,101536.28
2022-11-06T02:18:34.022Z,101526.13
2022-11-06T02:21:19.898Z,101533.06
2022-11-06T02:24:21.319Z,101533.22
2022-11-06T02:27:12.162Z,101535.91
2022-11-06T02:29:48.151Z,101538.75
2022-11-06T02:32:44.706Z,101529.84
2022-11-06T02:35:30.182Z,101526.47
2022-11-06T02:38:26.558Z,101512.88
2022-11-06T02:40:59.245Z,101525.81
2022-11-06T02:43:37.711Z,101511.50
2022-11-06T02:46:27.197Z,101514.44
2022-11-06T02:49:09.976Z,101505.44
2022-11-06T02:51:44.237Z,101505.97
2022-11-06T02:54:12.910Z,101505.81
2022-11-06T02:56:46.335Z,101499.94
2022-11-06T02:59:38.135Z,101493.13
2022-11-06T03:02:30.496Z,101493.03
2022-11-06T03:05:30.499Z,101493.00
2022-11-06T03:08:37.646Z,101501.50
2022-11-06T03:11:28.027Z,101494.72
2022-11-06T03:14:11.462Z,101496.94
2022-11-06T03:17:09.343Z,101493.13
2022-11-06T03:19:49.717Z,101487.88
2022-11-06T03:22:26.863Z,101485.56
2022-11-06T03:25:08.017Z,101487.50
2022-11-06T03:27:52.367Z,101477.56
2022-11-06T03:30:20.200Z,101478.91
2022-11-06T03:32:51.407Z,101484.38
2022-11-06T03:35:40.285Z,101474.91
2022-11-06T03:38:23.793Z,101478.91
2022-11-06T03:41:01.158Z,101482.72
2022-11-06T03:43:47.585Z,101468.28
2022-11-06T03:46:21.087Z,101469.63
2022-11-06T03:48:56.985Z,101472.63
2022-11-06T03:51:35.263Z,101464.31
2022-11-06T03:54:13.067Z,101471.97
2022-11-06T03:57:02.030Z,101460.81
2022-11-06T03:59:37.349Z,101457.84
2022-11-06T04:02:05.086Z,101458.00
2022-11-06T04:04:42.722Z,101463.03
2022-11-06T04:07:14.830Z,101460.56
2022-11-06T04:10:06.314Z,101457.72
2022-11-06T04:13:01.711Z,101461.19
2022-11-06T04:15:33.922Z,101451.22
2022-11-06T04:18:01.870Z,101451.91
2022-11-06T04:21:02.735Z,101449.41
2022-11-06T04:24:25.769Z,101454.38
2022-11-06T04:27:07.438Z,101451.72
2022-11-06T04:30:04.222Z,101454.72
2022-11-06T04:33:13.604Z,101454.72
2022-11-06T04:35:50.588Z,101465.19
2022-11-06T04:38:53.436Z,101462.38
2022-11-06T04:41:39.003Z,101452.06
2022-11-06T04:44:40.547Z,101457.41
2022-11-06T04:47:18.530Z,101452.88
2022-11-06T04:49:49.588Z,101451.88
2022-11-06T04:52:24.079Z,101459.38
2022-11-06T04:54:53.956Z,101452.22
2022-11-06T04:57:23.768Z,101446.22
2022-11-06T04:59:51.732Z,101446.03
2022-11-06T05:02:19.708Z,101449.03
2022-11-06T05:04:50.383Z,101449.22
2022-11-06T05:07:18.603Z,101450.53
2022-11-06T05:09:46.512Z,101447.16
2022-11-06T05:12:14.131Z,101452.94
2022-11-06T05:14:41.696Z,101449.66
2022-11-06T05:17:09.111Z,101458.53
2022-11-06T05:19:36.828Z,101451.50
2022-11-06T05:22:22.882Z,101452.91
2022-11-06T05:24:50.183Z,101454.31
2022-11-06T05:27:17.877Z,101455.16
2022-11-06T05:29:45.455Z,101452.56
2022-11-06T05:32:12.893Z,101446.06
2022-11-06T05:34:42.715Z,101454.41
2022-11-06T05:37:10.169Z,101450.59
2022-11-06T05:39:41.614Z,101453.91
2022-11-06T05:42:09.591Z,101446.91
2022-11-06T05:44:47.167Z,101452.56
2022-11-06T05:47:15.947Z,101451.69
2022-11-06T05:49:43.422Z,101455.72
2022-11-06T05:52:11.112Z,101455.75
2022-11-06T05:54:38.975Z,101441.63
2022-11-06T05:57:07.286Z,101446.56
2022-11-06T05:59:36.071Z,101443.78
2022-11-06T06:02:12.190Z,101452.97
2022-11-06T06:04:40.007Z,101443.31
2022-11-06T06:07:07.770Z,101445.00
2022-11-06T06:09:35.738Z,101449.22
2022-11-06T06:12:03.654Z,101451.75
2022-11-06T06:14:37.308Z,101455.53
2022-11-06T06:17:04.912Z,101458.78
2022-11-06T06:19:35.702Z,101459.41
2022-11-06T06:22:03.251Z,101463.66
2022-11-06T06:24:30.994Z,101477.28
2022-11-06T06:26:58.774Z,101468.19
2022-11-06T06:29:26.093Z,101461.38
2022-11-06T06:31:53.877Z,101452.09
2022-11-06T06:34:23.441Z,101453.09
2022-11-06T06:36:52.417Z,101451.81
2022-11-06T06:39:21.133Z,101458.28
2022-11-06T06:41:50.314Z,101450.44
2022-11-06T06:44:18.605Z,101456.22
2022-11-06T06:46:46.355Z,101461.22
2022-11-06T06:49:14.301Z,101450.00
2022-11-06T06:51:42.613Z,101452.56
2022-11-06T06:54:10.520Z,101448.78
2022-11-06T06:56:39.277Z,101443.38
2022-11-06T06:59:07.793Z,101447.56
2022-11-06T07:01:38.334Z,101455.84
2022-11-06T07:04:14.792Z,101465.63
2022-11-06T07:06:44.860Z,101465.66
2022-11-06T07:09:12.749Z,101462.16
2022-11-06T07:11:44.068Z,101479.03
2022-11-06T07:14:11.688Z,101483.84
2022-11-06T07:16:39.640Z,101479.22
2022-11-06T07:19:09.214Z,101489.00
2022-11-06T07:21:38.133Z,101487.56
2022-11-06T07:24:06.313Z,101491.91
2022-11-06T07:26:34.177Z,101489.78
2022-11-06T07:29:02.947Z,101485.31
2022-11-06T07:31:33.387Z,101494.81
2022-11-06T07:34:01.154Z,101489.19
2022-11-06T07:36:28.840Z,101489.38
2022-11-06T07:38:56.459Z,101489.84
2022-11-06T07:41:24.393Z,101489.84
2022-11-06T07:43:51.969Z,101479.69
2022-11-06T07:46:19.945Z,101487.34
2022-11-06T07:48:48.786Z,101502.03
2022-11-06T07:51:16.168Z,101502.94
2022-11-06T07:53:44.847Z,101495.34
2022-11-06T07:56:13.474Z,101500.84
2022-11-06T07:58:42.804Z,101497.81
2022-11-06T08:01:20.558Z,101500.84
2022-11-06T08:03:48.858Z,101503.97
2022-11-06T08:06:16.555Z,101508.97
2022-11-06T08:08:44.232Z,101499.56
2022-11-06T08:11:13.192Z,101506.06
2022-11-06T08:13:40.838Z,101497.16
2022-11-06T08:16:14.973Z,101499.44
2022-11-06T08:18:43.183Z,101499.53
2022-11-06T08:21:13.374Z,101514.59
2022-11-06T08:23:41.435Z,101513.88
2022-11-06T08:26:09.077Z,101507.69
2022-11-06T08:28:39.402Z,101509.25
2022-11-06T08:31:08.478Z,101498.25
2022-11-06T08:33:37.749Z,101502.44
2022-11-06T08:36:19.103Z,101498.78
2022-11-06T08:38:49.866Z,101496.41
2022-11-06T08:41:26.271Z,101498.69
2022-11-06T08:43:53.762Z,101507.47
2022-11-06T08:46:21.362Z,101499.94
2022-11-06T08:48:57.511Z,101493.16
2022-11-06T08:51:25.353Z,101494.34
2022-11-06T08:53:53.322Z,101501.41
2022-11-06T08:56:22.380Z,101495.28
2022-11-06T08:58:54.452Z,101493.72
2022-11-06T09:01:27.247Z,101492.72
2022-11-06T09:03:55.147Z,101485.31
2022-11-06T09:06:25.642Z,101471.16
2022-11-06T09:08:53.619Z,101485.03
2022-11-06T09:11:24.713Z,101479.94
2022-11-06T09:13:52.403Z,101479.44
2022-11-06T09:16:19.824Z,101474.50
2022-11-06T09:18:47.733Z,101470.94
2022-11-06T09:21:15.427Z,101475.56
2022-11-06T09:23:44.646Z,101476.91
2022-11-06T09:26:12.055Z,101471.25
2022-11-06T09:28:39.242Z,101473.09
2022-11-06T09:31:07.730Z,101466.59
2022-11-06T09:33:36.196Z,101466.44
2022-11-06T09:36:10.307Z,101463.63
2022-11-06T09:38:38.191Z,101468.09
2022-11-06T09:41:06.728Z,101467.19
2022-11-06T09:46:41.286Z,101480.22
2022-11-06T09:49:21.458Z,101471.69
2022-11-06T09:52:08.600Z,101477.72
2022-11-06T09:55:05.650Z,101469.50
2022-11-06T09:57:55.474Z,101471.19
2022-11-06T10:00:24.571Z,101464.56
2022-11-06T10:03:06.582Z,101462.31
2022-11-06T10:05:41.987Z,101463.34
2022-11-06T10:08:23.527Z,101463.78
2022-11-06T10:11:07.633Z,101466.66
2022-11-06T10:14:16.998Z,101456.56
2022-11-06T10:16:55.947Z,101456.97
2022-11-06T10:19:34.073Z,101459.84
2022-11-06T10:22:35.312Z,101447.84
2022-11-06T10:25:20.294Z,101449.66
2022-11-06T10:28:05.328Z,101453.56
2022-11-06T10:30:46.201Z,101444.81
2022-11-06T10:33:43.046Z,101447.50
2022-11-06T10:36:22.062Z,101442.72
2022-11-06T10:38:51.395Z,101440.66
2022-11-06T10:41:39.579Z,101436.47
2022-11-06T10:44:15.228Z,101423.16
2022-11-06T10:47:26.247Z,101428.53
2022-11-06T10:49:59.437Z,101428.06
2022-11-06T10:52:59.146Z,101422.81
2022-11-06T10:56:10.789Z,101413.03
2022-11-06T10:58:39.007Z,101409.03
2022-11-06T11:01:10.049Z,101402.69
2022-11-06T11:03:42.231Z,101405.75
2022-11-06T11:06:09.997Z,101399.03
2022-11-06T11:08:43.699Z,101393.41
2022-11-06T11:11:13.991Z,101393.75
2022-11-06T11:13:49.039Z,101381.25
2022-11-06T11:16:24.226Z,101378.69
2022-11-06T11:18:52.769Z,101382.75
2022-11-06T11:21:28.263Z,101375.41
2022-11-06T11:24:01.822Z,101374.59
2022-11-06T11:26:31.616Z,101373.66
2022-11-06T11:29:12.389Z,101369.69
2022-11-06T11:31:40.450Z,101366.69
2022-11-06T11:34:18.227Z,101366.63
2022-11-06T11:36:58.902Z,101358.91
2022-11-06T11:39:35.950Z,101358.53
2022-11-06T11:42:32.493Z,101351.84
2022-11-06T11:45:09.887Z,101344.88
2022-11-06T11:47:40.723Z,101351.25
2022-11-06T11:50:25.021Z,101348.78
2022-11-06T11:53:16.157Z,101338.03
2022-11-06T11:55:49.611Z,101333.25
2022-11-06T11:58:23.595Z,101328.91
2022-11-06T12:00:54.492Z,101321.03
2022-11-06T12:03:26.011Z,101316.44
2022-11-06T12:05:55.201Z,101313.16
2022-11-06T12:08:28.779Z,101309.66
2022-11-06T12:11:03.679Z,101304.25
2022-11-06T12:13:31.385Z,101305.53
2022-11-06T12:16:14.149Z,101295.31
2022-11-06T12:18:48.667Z,101288.63
2022-11-06T12:21:31.041Z,101280.63
2022-11-06T12:24:07.363Z,101274.25
2022-11-06T12:26:46.988Z,101275.53
2022-11-06T12:29:21.166Z,101267.09
2022-11-06T12:31:52.828Z,101260.19
2022-11-06T12:34:28.488Z,101255.81
2022-11-06T12:37:17.369Z,101255.13
2022-11-06T12:39:56.244Z,101259.41
2022-11-06T12:42:30.648Z,101256.84
2022-11-06T12:44:58.387Z,101246.16
2022-11-06T12:48:03.725Z,101242.97
2022-11-06T12:50:48.720Z,101237.13
2022-11-06T12:53:34.690Z,101233.94
2022-11-06T12:56:19.626Z,101229.72
2022-11-06T12:59:07.707Z,101223.13
2022-11-06T13:01:46.836Z,101219.63
2022-11-06T13:04:23.612Z,101231.53
2022-11-06T13:07:00.008Z,101223.91
2022-11-06T13:09:37.185Z,101219.22
2022-11-06T13:12:19.351Z,101209.47
2022-11-06T13:15:11.796Z,101212.88
2022-11-06T13:17:48.815Z,101213.03
2022-11-06T13:20:31.869Z,101212.50
2022-11-06T13:23:25.930Z,101212.00
2022-11-06T13:26:02.344Z,101207.72
2022-11-06T13:28:50.159Z,101205.63
2022-11-06T13:31:23.453Z,101206.44
2022-11-06T13:33:55.070Z,101199.41
2022-11-06T13:36:24.718Z,101191.31
2022-11-06T13:39:01.040Z,101197.09
2022-11-06T13:41:30.880Z,101193.13
2022-11-06T13:44:08.107Z,101193.25
2022-11-06T13:46:59.634Z,101191.88
2022-11-06T13:49:47.654Z,101175.66
2022-11-06T13:52:38.181Z,101176.19
2022-11-06T13:55:06.139Z,101181.03
2022-11-06T13:57:52.819Z,101173.19
2022-11-06T14:00:24.364Z,101169.59
2022-11-06T14:03:17.831Z,101173.81
2022-11-06T14:05:54.638Z,101185.00
2022-11-06T14:08:32.023Z,101182.88
2022-11-06T14:11:16.470Z,101188.03
2022-11-06T14:13:59.991Z,101190.53
2022-11-06T14:16:31.445Z,101185.13
2022-11-06T14:19:04.654Z,101190.06
2022-11-06T14:21:38.590Z,101189.22
2022-11-06T14:24:29.667Z,101189.81
2022-11-06T14:26:58.037Z,101193.34
2022-11-06T14:29:28.747Z,101198.28
2022-11-06T14:32:03.857Z,101196.19
2022-11-06T14:34:34.146Z,101194.53
2022-11-06T14:37:20.972Z,101196.66
2022-11-06T14:40:00.937Z,101191.47
2022-11-06T14:42:34.290Z,101196.88
2022-11-06T14:45:21.212Z,101192.16
2022-11-06T14:47:53.568Z,101192.41
2022-11-06T14:50:36.125Z,101198.50
2022-11-06T14:53:17.830Z,101202.00
2022-11-06T14:55:59.258Z,101198.28
2022-11-06T14:59:02.569Z,101203.06
2022-11-06T15:01:36.327Z,101199.66
2022-11-06T15:04:20.424Z,101204.25
2022-11-06T15:06:50.850Z,101209.03
2022-11-06T15:09:24.345Z,101205.53
2022-11-06T15:12:00.580Z,101202.81
2022-11-06T15:14:30.928Z,101203.06
2022-11-06T15:17:07.389Z,101208.44
2022-11-06T15:19:41.934Z,101220.31
2022-11-06T15:22:13.750Z,101218.66
2022-11-06T15:25:04.155Z,101218.66
2022-11-06T15:27:43.000Z,101224.88
2022-11-06T15:30:17.859Z,101220.91
2022-11-06T15:32:48.595Z,101216.69
2022-11-06T15:35:28.480Z,101224.56
2022-11-06T15:38:20.776Z,101225.97
2022-11-06T15:40:58.500Z,101221.84
2022-11-06T15:43:34.137Z,101220.44
2022-11-06T15:46:30.126Z,101229.59
2022-11-06T15:49:21.220Z,101230.28
2022-11-06T15:52:02.015Z,101233.44
2022-11-06T15:54:43.880Z,101232.00
2022-11-06T15:57:26.800Z,101236.78
2022-11-06T16:00:18.422Z,101239.97
2022-11-06T16:03:01.075Z,101239.97
2022-11-06T16:05:31.495Z,101239.97
2022-11-06T16:08:00.897Z,101249.72
2022-11-06T16:10:31.051Z,101251.56
2022-11-06T16:13:02.838Z,101255.13
2022-11-06T16:15:43.431Z,101258.47
2022-11-06T16:18:42.086Z,101261.25
2022-11-06T16:21:20.721Z,101267.00
2022-11-06T16:23:55.716Z,101271.22
2022-11-06T16:26:35.980Z,101267.75
2022-11-06T16:29:36.122Z,101274.88
2022-11-06T16:32:12.800Z,101274.94
2022-11-06T16:34:45.702Z,101273.75
2022-11-06T16:37:18.456Z,101273.00
2022-11-06T16:39:54.488Z,101282.59
2022-11-06T16:42:29.940Z,101293.03
2022-11-06T16:45:13.674Z,101293.44
2022-11-06T16:47:48.710Z,101296.00
2022-11-06T16:50:45.675Z,101301.00
2022-11-06T16:53:22.228Z,101297.59
2022-11-06T16:56:14.675Z,101303.66
2022-11-06T16:59:10.565Z,101305.59
2022-11-06T17:01:42.550Z,101306.25
2022-11-06T17:04:29.383Z,101309.56
2022-11-06T17:06:59.364Z,101315.59
2022-11-06T17:09:35.979Z,101315.81
2022-11-06T17:12:05.715Z,101312.75
2022-11-06T17:14:34.776Z,101320.22
2022-11-06T17:17:03.460Z,101317.78
2022-11-06T17:19:31.622Z,101313.44
2022-11-06T17:21:59.273Z,101320.31
2022-11-06T17:24:42.664Z,101327.03
2022-11-06T17:27:10.981Z,101330.75
2022-11-06T17:29:43.749Z,101339.50
2022-11-06T17:32:11.924Z,101345.91
2022-11-06T17:34:39.843Z,101355.66
2022-11-06T17:37:11.450Z,101358.38
2022-11-06T17:39:39.655Z,101361.91
2022-11-06T17:42:07.988Z,101364.81
2022-11-06T17:44:36.268Z,101367.94
2022-11-06T17:47:07.558Z,101375.19
2022-11-06T17:49:43.778Z,101377.50
2022-11-06T17:52:16.201Z,101376.66
2022-11-06T17:54:46.685Z,101388.47
2022-11-06T17:57:22.780Z,101383.72
2022-11-06T17:59:52.879Z,101390.34
2022-11-06T18:02:40.661Z,101404.88
2022-11-06T18:05:10.739Z,101408.38
2022-11-06T18:07:39.609Z,101418.78
2022-11-06T18:10:08.562Z,101419.19
2022-11-06T18:12:39.696Z,101423.75
2022-11-06T18:15:12.478Z,101422.72
2022-11-06T18:17:42.295Z,101429.59
2022-11-06T18:20:12.689Z,101436.63
2022-11-06T18:22:40.834Z,101437.06
2022-11-06T18:25:09.251Z,101443.91
2022-11-06T18:27:37.087Z,101457.56
2022-11-06T18:30:06.138Z,101453.22
2022-11-06T18:32:34.096Z,101446.59
2022-11-06T18:35:03.047Z,101454.47
2022-11-06T18:37:31.058Z,101464.63
2022-11-06T18:39:58.783Z,101468.13
2022-11-06T18:42:26.528Z,101470.22
2022-11-06T18:44:54.663Z,101480.13
2022-11-06T18:47:22.322Z,101477.47
2022-11-06T18:49:50.504Z,101476.84
2022-11-06T18:52:51.565Z,101479.13
2022-11-06T18:55:15.083Z,101493.81
2022-11-06T18:57:49.088Z,101498.53
2022-11-06T19:00:18.795Z,101503.47
2022-11-06T19:02:48.602Z,101509.28
2022-11-06T19:05:19.664Z,101512.78
2022-11-06T19:07:51.944Z,101512.75
2022-11-06T19:10:21.873Z,101514.44
2022-11-06T19:12:56.200Z,101527.00
2022-11-06T19:15:26.908Z,101530.94
2022-11-06T19:17:55.441Z,101523.72
2022-11-06T19:20:23.955Z,101528.00
2022-11-06T19:22:53.506Z,101530.72
2022-11-06T19:25:21.817Z,101535.28
2022-11-06T19:27:49.893Z,101533.19
2022-11-06T19:30:17.971Z,101537.91
2022-11-06T19:32:45.953Z,101543.09
2022-11-06T19:35:20.442Z,101545.13
2022-11-06T19:37:47.917Z,101547.41
2022-11-06T19:40:18.589Z,101554.19
2022-11-06T19:42:46.549Z,101552.09
2022-11-06T19:45:14.230Z,101552.09
2022-11-06T19:47:42.095Z,101561.22
2022-11-06T19:50:10.694Z,101563.06
2022-11-06T19:52:42.100Z,101560.38
2022-11-06T19:55:26.270Z,101575.22
2022-11-06T19:57:58.479Z,101579.13
2022-11-06T20:00:26.043Z,101571.06
2022-11-06T20:02:59.302Z,101579.78
2022-11-06T20:05:28.900Z,101579.38
2022-11-06T20:07:56.671Z,101586.22
2022-11-06T20:10:27.586Z,101584.75
2022-11-06T20:12:55.235Z,101587.84
2022-11-06T20:15:24.197Z,101602.69
2022-11-06T20:17:52.679Z,101608.69
2022-11-06T20:20:22.307Z,101616.88
2022-11-06T20:22:50.091Z,101612.34
2022-11-06T20:25:20.470Z,101623.47
2022-11-06T20:27:48.179Z,101624.34
2022-11-06T20:30:16.501Z,101625.34
2022-11-06T20:32:48.189Z,101628.44
2022-11-06T20:35:19.561Z,101629.25
2022-11-06T20:37:47.677Z,101636.91
2022-11-06T20:40:15.600Z,101637.31
2022-11-06T20:42:43.483Z,101633.56
2022-11-06T20:45:11.989Z,101639.19
2022-11-06T20:47:39.918Z,101635.41
2022-11-06T20:50:07.653Z,101649.31
2022-11-06T20:52:35.600Z,101656.41
2022-11-06T20:55:03.463Z,101657.50
2022-11-06T20:57:31.540Z,101660.34
2022-11-06T20:59:59.429Z,101662.84
2022-11-06T21:02:30.365Z,101671.47
2022-11-06T21:04:58.238Z,101673.94
2022-11-06T21:07:27.490Z,101671.53
2022-11-06T21:09:55.689Z,101674.47
2022-11-06T21:12:25.426Z,101677.34
2022-11-06T21:14:52.821Z,101678.97
2022-11-06T21:17:20.689Z,101679.72
2022-11-06T21:19:48.646Z,101677.69
2022-11-06T21:22:18.278Z,101670.19
2022-11-06T21:24:46.466Z,101678.44
2022-11-06T21:27:14.255Z,101675.88
2022-11-06T21:29:42.535Z,101682.53
2022-11-06T21:32:10.270Z,101690.84
2022-11-06T21:34:37.958Z,101689.94
2022-11-06T21:37:08.606Z,101686.41
2022-11-06T21:39:38.832Z,101694.09
2022-11-06T21:42:06.556Z,101693.06
2022-11-06T21:44:34.197Z,101701.03
2022-11-06T21:47:01.786Z,101707.25
2022-11-06T21:49:29.753Z,101687.41
2022-11-06T21:52:17.457Z,101695.19
2022-11-06T21:55:03.273Z,101700.81
2022-11-06T21:57:31.226Z,101707.38
2022-11-06T21:59:59.036Z,101703.84
2022-11-06T22:02:27.004Z,101698.31
2022-11-06T22:05:07.053Z,101702.63
2022-11-06T22:07:34.930Z,101715.75
2022-11-06T22:10:04.766Z,101726.66
2022-11-06T22:12:37.426Z,101730.63
2022-11-06T22:15:06.418Z,101728.56
2022-11-06T22:17:38.177Z,101733.72
2022-11-06T22:20:07.071Z,101736.59
2022-11-06T22:22:36.785Z,101733.03
2022-11-06T22:25:17.643Z,101730.34
2022-11-06T22:27:47.143Z,101732.91
2022-11-06T22:30:18.469Z,101734.19
2022-11-06T22:32:56.906Z,101730.88
2022-11-06T22:35:26.812Z,101735.03
2022-11-06T22:37:54.813Z,101729.88
2022-11-06T22:40:22.710Z,101739.53
2022-11-06T22:42:51.765Z,101734.56
2022-11-06T22:45:19.850Z,101735.97
2022-11-06T22:47:49.051Z,101731.69
2022-11-06T22:50:20.722Z,101734.53
2022-11-06T22:52:53.686Z,101733.25
2022-11-06T22:55:22.780Z,101740.66
2022-11-06T22:57:51.244Z,101740.75
2022-11-06T23:00:25.768Z,101736.38
2022-11-06T23:02:53.672Z,101734.19
2022-11-06T23:05:21.757Z,101745.91
2022-11-06T23:07:50.238Z,101744.19
2022-11-06T23:10:29.058Z,101741.59
2022-11-06T23:12:58.081Z,101732.69
2022-11-06T23:15:26.593Z,101737.44
2022-11-06T23:17:54.674Z,101730.94
2022-11-06T23:20:22.870Z,101741.22
2022-11-06T23:22:51.601Z,101735.78
2022-11-06T23:25:20.698Z,101739.47
2022-11-06T23:27:50.358Z,101736.69
2022-11-06T23:30:18.999Z,101735.47
2022-11-06T23:32:47.716Z,101730.59
2022-11-06T23:35:25.899Z,101737.44
2022-11-06T23:37:56.512Z,101731.22
2022-11-06T23:40:27.635Z,101733.72
2022-11-06T23:42:57.774Z,101736.88
2022-11-06T23:45:45.097Z,101739.25
2022-11-06T23:48:14.410Z,101740.56
2022-11-06T23:50:49.495Z,101741.19
2022-11-06T23:53:18.231Z,101744.78
2022-11-06T23:55:46.411Z,101742.66
2022-11-06T23:58:14.443Z,101741.53
